Time;durP1;ratioP1;P1;durP2;ratioP2;P2;SDS_P1;SDS_P2;PMS_P1;PMS_P2;Temp;Humidity;BMP_temperature;BMP_pressure;BME280_temperature;BME280_humidity;BME280_pressure;Samples;Min_cycle;Max_cycle;Signal;HPM_P1;HPM_P2
2022/08/20 00:00:06;;;;;;;3.77;3.47;;;17.30;1.00;;;;;;4972510;28;20420;-68
2022/08/20 00:02:42;;;;;;;4.40;4.00;;;17.30;1.00;;;;;;4990578;28;20924;-68
2022/08/20 00:05:27;;;;;;;4.10;3.80;;;17.20;1.00;;;;;;4974896;28;20435;-76
2022/08/20 00:08:25;;;;;;;4.23;3.70;;;17.20;1.00;;;;;;4990651;28;20443;-68
2022/08/20 00:10:56;;;;;;;3.93;3.50;;;17.10;1.00;;;;;;4996511;28;20447;-68
2022/08/20 00:16:50;;;;;;;3.90;3.60;;;17.10;1.00;;;;;;5029232;28;20405;-69
2022/08/20 00:23:45;;;;;;;4.20;3.80;;;17.10;1.00;;;;;;4989877;28;20423;-68
2022/08/20 00:25:44;;;;;;;4.47;4.07;;;17.10;1.00;;;;;;4982610;28;20424;-67
2022/08/20 00:31:52;;;;;;;3.80;3.50;;;17.10;1.00;;;;;;4952157;29;20437;-68
2022/08/20 00:51:29;;;;;;;;;;;;;;;;;;;;;
2022/08/20 00:54:54;;;;;;;4.27;3.90;;;17.00;1.00;;;;;;5075606;28;20412;-76
2022/08/20 01:01:28;;;;;;;;;;;;;;;;;;;;;
2022/08/20 01:07:37;;;;;;;4.87;4.40;;;17.00;1.00;;;;;;5074966;28;20888;-76
2022/08/20 01:10:52;;;;;;;5.70;5.30;;;17.00;1.00;;;;;;5074852;28;20408;-68
2022/08/20 01:13:22;;;;;;;4.87;4.20;;;17.10;1.00;;;;;;5075766;28;20407;-76
2022/08/20 01:15:52;;;;;;;6.60;5.60;;;17.10;1.00;;;;;;5074211;28;20405;-68
2022/08/20 01:21:46;;;;;;;5.70;5.20;;;17.10;1.00;;;;;;5075359;28;20376;-68
2022/08/20 01:24:34;;;;;;;4.67;4.27;;;17.10;1.00;;;;;;5057223;28;20436;-68
2022/08/20 01:27:03;;;;;;;6.57;5.10;;;17.10;1.00;;;;;;5056599;28;20521;-68
2022/08/20 01:32:46;;;;;;;7.43;5.40;;;17.00;1.00;;;;;;5053450;28;20423;-68
2022/08/20 01:35:17;;;;;;;5.50;5.03;;;17.10;1.00;;;;;;5057560;28;20503;-76
2022/08/20 01:37:58;;;;;;;6.33;5.73;;;17.10;1.00;;;;;;5074211;28;20983;-68
2022/08/20 01:40:52;;;;;;;6.17;5.57;;;17.10;1.00;;;;;;5074974;28;20398;-68
2022/08/20 01:47:24;;;;;;;7.60;5.60;;;17.10;1.00;;;;;;4973488;28;20471;-69
2022/08/20 01:50:16;;;;;;;11.17;6.77;;;17.10;1.00;;;;;;4972831;28;20421;-75
2022/08/20 01:52:50;;;;;;;9.53;7.20;;;17.10;1.00;;;;;;4974152;28;20429;-69
2022/08/20 01:55:17;;;;;;;7.57;6.80;;;17.10;1.00;;;;;;4973915;28;20516;-68
2022/08/20 01:57:43;;;;;;;7.03;6.33;;;17.10;1.00;;;;;;5037457;28;20465;-69
2022/08/20 02:00:14;;;;;;;6.17;5.67;;;17.20;1.00;;;;;;5074469;28;20420;-70
2022/08/20 02:06:07;;;;;;;6.20;5.70;;;17.20;1.00;;;;;;4998938;28;20403;-68
2022/08/20 02:08:43;;;;;;;;;;;;;;;;;;;;;
2022/08/20 02:14:57;;;;;;;11.60;6.37;;;17.10;1.00;;;;;;5012465;28;20462;-68
2022/08/20 02:17:25;;;;;;;8.17;6.70;;;17.20;1.00;;;;;;4995281;28;20483;-75
2022/08/20 02:20:07;;;;;;;9.07;7.10;;;17.10;1.00;;;;;;5066337;28;20412;-68
2022/08/20 02:25:48;;;;;;;10.13;7.53;;;17.20;1.00;;;;;;5074220;28;20423;-68
2022/08/20 02:28:19;;;;;;;8.43;6.80;;;17.20;1.00;;;;;;5055035;28;20519;-69
2022/08/20 02:31:06;;;;;;;;;;;;;;;;;;;;;
2022/08/20 02:33:34;;;;;;;8.67;7.40;;;17.20;1.00;;;;;;5073984;28;20415;-76
2022/08/20 02:36:11;;;;;;;9.23;7.17;;;17.20;1.00;;;;;;5073473;28;20416;-72
2022/08/20 02:39:06;;;;;;;12.53;6.77;;;17.20;1.00;;;;;;5055936;28;20517;-68
2022/08/20 02:48:07;;;;;;;13.03;8.10;;;17.20;1.00;;;;;;5052875;28;20478;-76
2022/08/20 02:50:33;;;;;;;8.67;7.77;;;17.20;1.00;;;;;;5055728;28;20496;-68
2022/08/20 02:53:02;;;;;;;12.47;8.23;;;17.10;1.00;;;;;;5055784;28;20408;-68
2022/08/20 03:05:58;;;;;;;8.83;7.37;;;17.20;1.00;;;;;;4914848;29;20387;-68
2022/08/20 03:09:01;;;;;;;8.20;6.47;;;17.10;1.00;;;;;;4914722;29;20435;-68
2022/08/20 03:11:31;;;;;;;12.90;9.97;;;17.10;1.00;;;;;;4915218;29;20963;-76
2022/08/20 03:14:25;;;;;;;16.10;11.97;;;17.10;1.00;;;;;;4956510;28;20947;-76
2022/08/20 03:16:52;;;;;;;17.70;12.77;;;17.20;1.00;;;;;;5043682;28;20427;-76
2022/08/20 03:19:17;;;;;;;22.97;13.23;;;17.20;1.00;;;;;;5055315;28;20448;-75
2022/08/20 03:22:23;;;;;;;21.60;13.33;;;17.20;1.00;;;;;;5073157;28;20403;-68
2022/08/20 03:24:52;;;;;;;21.40;13.77;;;17.20;1.00;;;;;;5072542;28;20164;-76
2022/08/20 03:27:18;;;;;;;14.43;10.90;;;17.20;1.00;;;;;;5072522;28;20467;-68
2022/08/20 03:29:44;;;;;;;17.43;12.17;;;17.30;1.00;;;;;;5073084;28;20403;-76
2022/08/20 03:32:18;;;;;;;23.57;13.07;;;17.30;1.00;;;;;;5055360;28;20405;-68
2022/08/20 03:34:45;;;;;;;18.53;13.33;;;17.40;4.80;;;;;;5072967;28;20500;-69
2022/08/20 03:37:54;;;;;;;21.57;13.63;;;17.40;4.80;;;;;;5072235;28;20495;-76
2022/08/20 03:44:38;;;;;;;20.97;14.23;;;17.40;22.30;;;;;;5072316;28;20480;-76
2022/08/20 03:47:08;;;;;;;23.13;14.63;;;17.50;39.90;;;;;;5072172;28;20523;-76
2022/08/20 03:50:42;;;;;;;;;;;;;;;;;;;;;
2022/08/20 03:53:11;;;;;;;22.00;15.03;;;17.50;64.30;;;;;;5010441;28;20402;-76
2022/08/20 03:55:41;;;;;;;22.70;14.00;;;17.50;68.20;;;;;;5011011;28;20524;-76
2022/08/20 03:58:27;;;;;;;25.57;16.23;;;17.50;72.40;;;;;;5052889;28;20529;-76
2022/08/20 04:01:09;;;;;;;20.57;14.07;;;17.50;72.60;;;;;;5053686;28;20427;-76
2022/08/20 04:03:38;;;;;;;23.80;15.27;;;17.50;78.50;;;;;;5072629;28;20403;-68
2022/08/20 04:06:04;;;;;;;25.53;15.60;;;17.50;79.00;;;;;;5072108;28;20397;-75
2022/08/20 04:08:30;;;;;;;23.87;16.07;;;17.50;86.20;;;;;;5054790;28;20432;-76
2022/08/20 04:14:23;;;;;;;26.50;15.93;;;17.60;86.50;;;;;;5073006;28;20395;-76
2022/08/20 04:16:49;;;;;;;25.80;16.70;;;17.60;92.50;;;;;;5053897;28;20548;-76
2022/08/20 04:19:26;;;;;;;28.00;17.30;;;17.60;99.20;;;;;;5071561;28;20550;-69
2022/08/20 04:21:52;;;;;;;29.23;15.17;;;17.60;99.90;;;;;;5072491;28;20483;-69
2022/08/20 04:24:39;;;;;;;26.50;16.00;;;17.60;99.90;;;;;;5072822;28;20484;-68
2022/08/20 04:27:06;;;;;;;25.43;15.87;;;17.70;99.90;;;;;;5057330;28;20424;-76
2022/08/20 04:29:33;;;;;;;25.10;15.80;;;17.70;99.90;;;;;;5076283;28;20920;-68
2022/08/20 04:32:02;;;;;;;26.23;17.10;;;17.80;99.90;;;;;;5076446;28;20401;-68
2022/08/20 04:34:28;;;;;;;23.63;15.80;;;17.80;99.90;;;;;;5058249;28;20415;-76
2022/08/20 04:36:55;;;;;;;27.87;15.07;;;17.90;99.90;;;;;;5075564;28;20404;-68
2022/08/20 04:39:21;;;;;;;27.63;16.03;;;17.90;99.90;;;;;;5075153;28;20448;-74
2022/08/20 04:41:47;;;;;;;23.43;15.27;;;17.90;99.90;;;;;;5058173;28;20408;-77
2022/08/20 04:44:13;;;;;;;22.60;14.57;;;17.90;99.90;;;;;;5076073;28;20409;-76
2022/08/20 04:46:40;;;;;;;27.80;16.20;;;17.90;99.90;;;;;;5057933;28;20405;-68
2022/08/20 04:49:06;;;;;;;29.07;16.77;;;17.90;99.90;;;;;;5075957;28;20431;-75
2022/08/20 04:51:33;;;;;;;22.60;15.27;;;17.90;99.90;;;;;;5075830;28;20408;-68
2022/08/20 04:54:22;;;;;;;32.70;16.57;;;17.90;99.90;;;;;;5076038;28;20451;-68
2022/08/20 04:56:48;;;;;;;31.70;17.10;;;17.90;99.90;;;;;;5057540;28;20913;-76
2022/08/20 04:59:16;;;;;;;23.03;15.20;;;17.90;99.90;;;;;;5057027;28;20474;-69
2022/08/20 05:01:44;;;;;;;26.17;16.33;;;17.90;99.90;;;;;;5057756;28;20447;-77
2022/08/20 05:04:10;;;;;;;20.80;14.37;;;17.90;99.90;;;;;;5075450;28;20915;-68
2022/08/20 05:06:37;;;;;;;30.07;16.33;;;17.90;99.90;;;;;;5075256;28;20404;-67
2022/08/20 05:09:05;;;;;;;26.33;16.43;;;18.00;99.90;;;;;;5075731;28;20757;-68
2022/08/20 05:11:31;;;;;;;27.27;16.60;;;18.00;99.90;;;;;;5075542;28;20423;-76
2022/08/20 05:13:57;;;;;;;23.90;15.70;;;18.00;99.90;;;;;;5075612;28;20396;-76
2022/08/20 05:16:36;;;;;;;26.87;16.83;;;18.00;99.90;;;;;;5075041;28;20663;-68
2022/08/20 05:19:02;;;;;;;24.60;16.20;;;18.10;99.90;;;;;;5056308;28;20597;-76
2022/08/20 05:21:28;;;;;;;22.93;15.27;;;18.10;99.90;;;;;;5075427;28;20392;-69
2022/08/20 05:23:57;;;;;;;27.70;17.57;;;18.20;99.90;;;;;;5075582;28;20496;-68
2022/08/20 05:26:25;;;;;;;26.27;16.30;;;18.20;99.90;;;;;;5056507;28;20463;-69
2022/08/20 05:28:51;;;;;;;23.67;16.00;;;18.30;99.90;;;;;;5075294;28;20455;-76
2022/08/20 05:31:20;;;;;;;33.03;17.00;;;18.30;99.90;;;;;;5075462;28;20845;-68
2022/08/20 05:33:49;;;;;;;20.77;14.87;;;18.30;99.90;;;;;;5075132;28;20875;-68
2022/08/20 05:36:15;;;;;;;27.03;16.57;;;18.40;99.90;;;;;;5073331;28;20484;-68
2022/08/20 05:38:41;;;;;;;23.60;15.33;;;18.40;99.90;;;;;;5074056;28;20590;-70
2022/08/20 05:41:09;;;;;;;32.90;17.03;;;18.40;99.90;;;;;;5075116;28;20484;-76
2022/08/20 05:43:35;;;;;;;22.23;15.53;;;18.40;99.90;;;;;;5075033;28;20216;-76
2022/08/20 05:46:04;;;;;;;25.60;15.23;;;18.40;99.90;;;;;;5056461;28;20500;-75
2022/08/20 05:48:33;;;;;;;24.43;16.10;;;18.40;99.90;;;;;;5074943;28;20512;-77
2022/08/20 05:50:59;;;;;;;24.77;15.57;;;18.30;99.90;;;;;;5074917;28;20405;-68
2022/08/20 05:53:36;;;;;;;23.87;14.30;;;18.30;99.90;;;;;;5057596;28;20419;-72
2022/08/20 05:56:02;;;;;;;22.77;15.87;;;18.40;99.90;;;;;;5073226;28;20197;-76
2022/08/20 05:59:07;;;;;;;25.47;13.60;;;18.40;99.90;;;;;;5074608;28;20460;-71
2022/08/20 06:04:41;;;;;;;21.87;13.60;;;18.50;99.90;;;;;;5047509;28;20466;-73
2022/08/20 06:07:20;;;;;;;19.77;12.30;;;18.60;99.90;;;;;;5074192;28;20952;-70
2022/08/20 06:09:47;;;;;;;19.17;12.50;;;18.60;99.90;;;;;;5074521;28;20254;-71
2022/08/20 06:12:13;;;;;;;20.20;13.77;;;18.70;99.90;;;;;;5074254;28;20535;-70
2022/08/20 06:14:39;;;;;;;26.87;15.30;;;18.70;99.90;;;;;;5073755;28;20411;-76
2022/08/20 06:17:14;;;;;;;22.40;12.80;;;18.70;99.90;;;;;;5073647;28;20451;-76
2022/08/20 06:19:41;;;;;;;22.03;14.37;;;18.70;99.90;;;;;;5056260;28;20463;-76
2022/08/20 06:22:07;;;;;;;19.60;12.60;;;18.80;99.90;;;;;;5074103;28;20405;-75
2022/08/20 06:24:33;;;;;;;15.67;11.23;;;18.80;99.90;;;;;;5074349;28;20873;-70
2022/08/20 06:27:02;;;;;;;23.47;12.87;;;18.90;99.90;;;;;;5073344;28;20469;-75
2022/08/20 06:29:28;;;;;;;21.73;12.27;;;19.00;99.90;;;;;;5074119;28;20197;-76
2022/08/20 06:31:55;;;;;;;17.43;11.60;;;19.00;99.90;;;;;;5074145;28;20916;-75
2022/08/20 06:34:27;;;;;;;24.17;12.80;;;19.10;99.90;;;;;;5072821;28;20412;-68
2022/08/20 06:37:00;;;;;;;16.20;10.93;;;19.20;99.90;;;;;;5073291;28;20411;-70
2022/08/20 06:39:28;;;;;;;12.77;9.67;;;19.20;99.90;;;;;;5055726;28;20460;-71
2022/08/20 06:41:57;;;;;;;10.70;8.20;;;19.30;99.90;;;;;;5074322;28;20412;-69
2022/08/20 06:44:24;;;;;;;11.63;9.20;;;19.30;99.90;;;;;;5073780;28;20404;-76
2022/08/20 06:46:50;;;;;;;8.90;8.00;;;19.40;99.90;;;;;;5072940;28;20403;-75
2022/08/20 06:56:10;;;;;;;10.03;6.43;;;19.60;99.90;;;;;;5073486;28;20904;-75
2022/08/20 06:58:36;;;;;;;7.93;5.80;;;19.70;99.90;;;;;;5073374;28;20471;-71
2022/08/20 07:01:02;;;;;;;7.57;5.97;;;19.80;99.90;;;;;;5073530;28;20416;-76
2022/08/20 07:03:30;;;;;;;7.07;6.10;;;20.00;99.90;;;;;;5073478;28;20434;-70
2022/08/20 07:05:56;;;;;;;5.97;5.37;;;20.10;99.90;;;;;;5073350;28;20407;-71
2022/08/20 07:08:22;;;;;;;6.20;5.30;;;20.20;99.90;;;;;;5072775;28;20446;-76
2022/08/20 07:10:48;;;;;;;10.23;6.20;;;20.30;99.90;;;;;;5072402;28;20530;-76
2022/08/20 07:13:15;;;;;;;5.47;4.80;;;20.40;99.90;;;;;;5055746;28;20250;-71
2022/08/20 07:15:45;;;;;;;6.70;4.93;;;20.50;99.90;;;;;;5073184;28;20423;-69
2022/08/20 07:19:03;;;;;;;7.60;4.50;;;20.40;96.30;;;;;;5072574;28;20494;-69
2022/08/20 07:21:29;;;;;;;4.87;4.37;;;20.50;44.30;;;;;;5073266;28;20393;-74
2022/08/20 07:23:55;;;;;;;4.87;4.07;;;20.50;10.60;;;;;;5073331;28;20490;-74
2022/08/20 07:26:23;;;;;;;5.43;4.13;;;20.50;1.00;;;;;;5072432;28;20855;-75
2022/08/20 07:28:53;;;;;;;3.87;3.67;;;20.60;1.00;;;;;;5071986;28;20205;-74
2022/08/20 07:34:06;;;;;;;7.03;4.00;;;20.40;1.00;;;;;;5073352;28;20443;-74
2022/08/20 07:36:32;;;;;;;8.60;4.03;;;20.40;1.00;;;;;;5072360;28;20495;-75
2022/08/20 07:38:58;;;;;;;4.17;3.87;;;20.50;1.00;;;;;;5054836;28;20472;-68
2022/08/20 07:41:24;;;;;;;4.90;3.60;;;20.50;1.00;;;;;;5055059;28;20417;-74
2022/08/20 07:43:50;;;;;;;3.83;3.53;;;20.60;1.00;;;;;;5073050;28;20409;-69
2022/08/20 07:46:18;;;;;;;5.00;4.47;;;20.60;1.00;;;;;;5072049;28;20167;-74
2022/08/20 07:48:48;;;;;;;4.77;4.07;;;20.70;1.00;;;;;;5072024;28;20194;-74
2022/08/20 07:51:16;;;;;;;8.63;4.20;;;20.70;1.00;;;;;;5055048;28;20418;-75
2022/08/20 07:53:46;;;;;;;4.63;3.60;;;20.80;1.00;;;;;;5072791;28;20405;-75
2022/08/20 07:56:15;;;;;;;4.23;3.87;;;20.80;1.00;;;;;;5054100;28;20408;-74
2022/08/20 07:58:48;;;;;;;4.60;4.20;;;20.80;1.00;;;;;;5072641;28;20459;-69
2022/08/20 08:01:19;;;;;;;7.63;4.73;;;20.80;1.00;;;;;;5076548;28;20451;-68
2022/08/20 08:03:45;;;;;;;7.23;4.43;;;20.70;1.00;;;;;;5076968;28;20396;-75
2022/08/20 08:06:12;;;;;;;3.77;3.47;;;20.70;1.00;;;;;;5075661;28;21395;-68
2022/08/20 08:08:40;;;;;;;4.33;3.70;;;20.70;1.00;;;;;;5076510;28;20428;-68
2022/08/20 08:11:06;;;;;;;4.00;3.70;;;20.70;1.00;;;;;;5076772;28;20407;-68
2022/08/20 08:13:35;;;;;;;3.20;3.00;;;20.80;1.00;;;;;;5076812;28;20401;-68
2022/08/20 08:16:03;;;;;;;3.77;3.47;;;20.80;1.00;;;;;;5076275;28;20450;-69
2022/08/20 08:18:36;;;;;;;3.20;3.00;;;20.90;1.00;;;;;;5076611;28;20461;-75
2022/08/20 08:21:11;;;;;;;4.80;3.77;;;21.00;1.00;;;;;;5076526;28;20742;-68
2022/08/20 08:23:43;;;;;;;5.00;4.00;;;21.10;1.00;;;;;;5058552;28;20410;-68
2022/08/20 08:26:12;;;;;;;10.03;3.80;;;21.10;1.00;;;;;;5075639;28;20505;-73
2022/08/20 08:28:38;;;;;;;3.43;3.13;;;21.10;1.00;;;;;;5075758;28;20451;-68
2022/08/20 08:31:07;;;;;;;3.20;3.00;;;21.30;99.90;;;;;;5076373;28;20436;-73
2022/08/20 08:33:33;;;;;;;6.70;2.90;;;21.40;99.90;;;;;;5076306;28;20412;-69
2022/08/20 08:36:09;;;;;;;4.77;3.20;;;21.60;99.90;;;;;;5075920;28;20496;-73
2022/08/20 08:38:38;;;;;;;3.90;3.20;;;21.90;99.90;;;;;;5076389;28;20454;-68
2022/08/20 08:41:18;;;;;;;4.37;2.70;;;22.10;99.90;;;;;;5076232;28;20397;-75
2022/08/20 08:43:46;;;;;;;6.20;3.20;;;22.20;99.90;;;;;;5075795;28;20396;-74
2022/08/20 08:46:16;;;;;;;4.50;3.50;;;22.30;99.90;;;;;;5074672;28;20491;-68
2022/08/20 08:48:46;;;;;;;4.73;3.20;;;22.30;99.90;;;;;;5076038;28;20417;-70
2022/08/20 08:51:16;;;;;;;3.97;2.80;;;22.40;99.90;;;;;;5076077;28;20426;-74
2022/08/20 08:53:47;;;;;;;4.07;3.67;;;22.30;99.90;;;;;;5075654;28;20404;-71
2022/08/20 08:56:14;;;;;;;3.20;2.60;;;22.30;99.90;;;;;;5095302;28;20400;-68
2022/08/20 08:58:40;;;;;;;3.20;2.90;;;22.20;99.90;;;;;;5096233;28;20447;-74
2022/08/20 09:01:16;;;;;;;3.13;2.77;;;22.30;99.90;;;;;;5094428;28;20427;-74
2022/08/20 09:03:45;;;;;;;3.57;3.10;;;22.60;99.90;;;;;;5095204;28;20392;-74
2022/08/20 09:06:22;;;;;;;4.00;2.90;;;22.80;99.90;;;;;;5075185;28;20413;-69
2022/08/20 09:08:54;;;;;;;3.13;2.90;;;22.90;99.90;;;;;;5075712;28;20431;-74
2022/08/20 09:11:23;;;;;;;5.57;2.60;;;22.90;99.90;;;;;;5057743;28;20511;-72
2022/08/20 09:13:50;;;;;;;3.53;3.07;;;23.20;99.90;;;;;;5075748;28;20383;-75
2022/08/20 09:16:16;;;;;;;3.77;2.40;;;23.40;99.90;;;;;;5093476;28;20415;-70
2022/08/20 09:18:42;;;;;;;2.57;2.37;;;23.60;99.90;;;;;;5095824;28;20474;-71
2022/08/20 09:21:08;;;;;;;4.03;2.30;;;24.00;99.90;;;;;;5078398;28;20170;-70
2022/08/20 09:23:35;;;;;;;4.80;2.50;;;24.20;97.30;;;;;;5074656;28;20170;-73
2022/08/20 09:26:00;;;;;;;7.77;2.80;;;24.20;57.80;;;;;;5089720;28;20916;-72
2022/08/20 09:28:26;;;;;;;1.83;1.67;;;24.50;47.00;;;;;;5088214;28;20490;-70
2022/08/20 09:30:52;;;;;;;2.70;1.80;;;24.20;1.00;;;;;;5075313;28;20189;-69
2022/08/20 09:33:18;;;;;;;3.20;1.80;;;24.20;1.00;;;;;;5080423;28;20990;-68
2022/08/20 09:35:45;;;;;;;3.93;2.00;;;24.10;1.00;;;;;;5095249;28;20176;-72
2022/08/20 09:38:11;;;;;;;3.00;1.80;;;24.10;1.00;;;;;;5090854;28;20456;-75
2022/08/20 09:40:37;;;;;;;2.40;1.80;;;24.30;1.00;;;;;;5075263;28;20401;-75
2022/08/20 09:43:07;;;;;;;9.10;2.50;;;24.30;1.00;;;;;;5075480;28;20492;-69
2022/08/20 09:45:33;;;;;;;7.10;2.27;;;24.40;1.00;;;;;;5095188;28;20411;-73
2022/08/20 09:47:59;;;;;;;3.27;1.50;;;24.70;1.00;;;;;;5093605;28;20419;-72
2022/08/20 09:50:27;;;;;;;7.27;2.63;;;25.00;1.00;;;;;;5082799;28;20435;-75
2022/08/20 09:52:56;;;;;;;3.03;1.90;;;25.30;1.00;;;;;;5095183;28;20200;-74
2022/08/20 09:55:33;;;;;;;3.47;2.03;;;25.20;1.00;;;;;;5095118;28;20437;-74
2022/08/20 09:58:01;;;;;;;6.00;2.67;;;24.80;1.00;;;;;;5072248;28;20460;-75
2022/08/20 10:00:27;;;;;;;3.77;2.40;;;24.60;1.00;;;;;;5073796;28;20769;-76
2022/08/20 10:02:53;;;;;;;10.53;2.53;;;24.40;1.00;;;;;;5075881;28;20413;-70
2022/08/20 10:05:19;;;;;;;6.93;2.50;;;24.40;1.00;;;;;;5074877;28;20810;-68
2022/08/20 10:07:45;;;;;;;4.57;2.20;;;24.40;1.00;;;;;;5071898;28;20193;-69
2022/08/20 10:10:13;;;;;;;4.17;2.83;;;24.60;1.00;;;;;;5094758;28;20630;-69
2022/08/20 10:12:40;;;;;;;6.33;1.70;;;24.90;1.00;;;;;;5079544;28;20170;-69
2022/08/20 10:15:07;;;;;;;2.53;2.30;;;25.20;1.00;;;;;;5074519;28;20404;-70
2022/08/20 10:17:36;;;;;;;3.47;2.17;;;25.30;1.00;;;;;;5086726;28;20789;-74
2022/08/20 10:20:02;;;;;;;5.83;2.13;;;25.30;1.00;;;;;;5093911;28;20493;-74
2022/08/20 10:22:28;;;;;;;8.83;2.03;;;25.30;1.00;;;;;;5081235;28;20913;-70
2022/08/20 10:24:54;;;;;;;5.63;2.40;;;25.00;1.00;;;;;;5083343;28;20412;-70
2022/08/20 10:27:19;;;;;;;4.03;2.07;;;24.90;1.00;;;;;;5075716;28;20185;-70
2022/08/20 10:29:45;;;;;;;3.40;2.07;;;25.00;1.00;;;;;;5086997;28;20174;-69
2022/08/20 10:32:14;;;;;;;4.63;2.00;;;25.20;1.00;;;;;;5073976;28;20224;-69
2022/08/20 10:34:42;;;;;;;3.83;2.10;;;25.50;1.00;;;;;;5080015;28;20177;-75
2022/08/20 10:37:08;;;;;;;8.90;2.33;;;25.50;1.00;;;;;;5093251;28;20753;-74
2022/08/20 10:39:34;;;;;;;4.57;1.80;;;25.60;1.00;;;;;;5088817;28;20455;-70
2022/08/20 10:42:00;;;;;;;3.53;2.10;;;25.60;1.00;;;;;;5074197;28;20405;-70
2022/08/20 10:44:26;;;;;;;7.13;2.73;;;25.80;1.00;;;;;;5076370;28;20170;-75
2022/08/20 10:46:52;;;;;;;3.93;2.07;;;26.20;1.00;;;;;;5093935;28;20457;-75
2022/08/20 10:49:18;;;;;;;2.57;1.87;;;25.90;1.00;;;;;;5092855;28;20250;-72
2022/08/20 10:51:43;;;;;;;3.40;1.73;;;25.60;1.00;;;;;;5073761;28;20208;-77
2022/08/20 10:54:09;;;;;;;3.20;2.30;;;25.20;1.00;;;;;;5074134;28;20205;-72
2022/08/20 10:56:35;;;;;;;6.00;2.30;;;25.10;1.00;;;;;;5091815;28;20174;-77
2022/08/20 10:59:00;;;;;;;5.47;2.00;;;24.90;1.00;;;;;;5093289;28;20562;-77
2022/08/20 11:01:26;;;;;;;3.43;1.90;;;24.90;1.00;;;;;;5076148;28;20173;-76
2022/08/20 11:03:52;;;;;;;4.07;2.00;;;24.70;1.00;;;;;;5073436;28;20704;-73
2022/08/20 11:06:17;;;;;;;5.63;2.07;;;24.60;1.00;;;;;;5054465;28;20170;-71
2022/08/20 11:08:43;;;;;;;3.83;1.50;;;24.90;1.00;;;;;;5055519;28;20273;-76
2022/08/20 11:11:09;;;;;;;7.63;2.30;;;25.30;1.00;;;;;;5090948;28;20178;-73
2022/08/20 11:13:35;;;;;;;5.33;2.00;;;25.50;1.00;;;;;;5075440;28;20177;-71
2022/08/20 11:16:02;;;;;;;5.17;1.73;;;25.80;1.00;;;;;;5057879;28;20248;-75
2022/08/20 11:18:28;;;;;;;7.40;1.53;;;26.00;1.00;;;;;;5072941;28;20452;-70
2022/08/20 11:20:55;;;;;;;5.13;1.57;;;26.40;1.00;;;;;;5073122;28;20465;-75
2022/08/20 11:23:20;;;;;;;2.97;1.33;;;26.80;1.00;;;;;;5093635;28;20399;-75
2022/08/20 11:25:47;;;;;;;4.17;1.60;;;26.90;1.00;;;;;;5058344;28;20425;-75
2022/08/20 11:28:14;;;;;;;6.23;1.20;;;26.90;1.00;;;;;;5063096;28;20705;-74
2022/08/20 11:30:39;;;;;;;3.80;1.03;;;26.90;1.00;;;;;;5075526;28;20904;-70
2022/08/20 11:33:05;;;;;;;3.73;2.03;;;26.90;1.00;;;;;;5067318;28;20475;-71
2022/08/20 11:35:34;;;;;;;1.77;1.00;;;26.40;1.00;;;;;;5055026;28;20404;-70
2022/08/20 11:38:00;;;;;;;2.73;1.17;;;26.30;1.00;;;;;;5059658;28;20193;-70
2022/08/20 11:40:28;;;;;;;1.87;0.90;;;27.00;1.00;;;;;;5093223;28;20399;-70
2022/08/20 11:42:54;;;;;;;3.27;1.10;;;27.90;1.00;;;;;;5070704;28;20416;-75
2022/08/20 11:45:20;;;;;;;2.93;1.07;;;28.10;1.00;;;;;;5073110;28;20731;-76
2022/08/20 11:47:45;;;;;;;5.43;1.87;;;27.90;1.00;;;;;;5056188;28;20447;-75
2022/08/20 11:50:17;;;;;;;4.50;3.57;;;27.60;1.00;;;;;;5074548;28;20396;-72
2022/08/20 11:52:43;;;;;;;1.40;0.90;;;27.50;1.00;;;;;;5091068;28;20162;-73
2022/08/20 11:55:10;;;;;;;2.77;1.10;;;27.70;1.00;;;;;;5072974;28;20454;-70
2022/08/20 11:57:40;;;;;;;3.17;1.00;;;28.40;1.00;;;;;;5071914;28;20520;-75
2022/08/20 12:00:12;;;;;;;3.53;1.03;;;28.60;1.00;;;;;;5072814;28;20412;-71
2022/08/20 12:02:38;;;;;;;5.43;2.00;;;27.90;1.00;;;;;;5072821;28;20388;-74
2022/08/20 12:05:04;;;;;;;3.53;1.30;;;27.90;1.00;;;;;;5074777;28;20403;-70
2022/08/20 12:07:30;;;;;;;2.23;1.00;;;28.30;1.00;;;;;;5073835;28;20511;-76
2022/08/20 12:09:56;;;;;;;5.13;1.27;;;28.30;1.00;;;;;;5055803;28;20839;-76
2022/08/20 12:12:23;;;;;;;3.07;1.10;;;28.60;1.00;;;;;;5072744;28;20170;-75
2022/08/20 12:14:53;;;;;;;2.77;1.00;;;29.30;1.00;;;;;;5071027;28;20169;-75
2022/08/20 12:17:26;;;;;;;5.83;1.30;;;29.40;1.00;;;;;;5091963;28;20811;-75
2022/08/20 12:19:54;;;;;;;7.43;1.30;;;29.70;1.00;;;;;;5072664;28;20512;-76
2022/08/20 12:22:20;;;;;;;2.30;0.70;;;29.40;1.00;;;;;;5072667;28;20419;-70
2022/08/20 12:24:46;;;;;;;5.20;1.23;;;29.70;1.00;;;;;;5091641;28;20831;-75
2022/08/20 12:27:18;;;;;;;3.17;1.10;;;29.90;1.00;;;;;;5064911;28;20535;-74
2022/08/20 12:29:46;;;;;;;2.83;1.40;;;29.70;1.00;;;;;;5072789;28;20230;-74
2022/08/20 12:32:12;;;;;;;3.20;1.00;;;29.40;1.00;;;;;;5062958;28;20447;-75
2022/08/20 12:34:40;;;;;;;2.10;1.00;;;28.80;1.00;;;;;;5075236;28;20439;-76
2022/08/20 12:37:12;;;;;;;3.80;1.00;;;28.20;1.00;;;;;;5084940;28;20523;-70
2022/08/20 12:39:40;;;;;;;4.43;1.03;;;27.70;1.00;;;;;;5072930;28;20448;-70
2022/08/20 12:42:07;;;;;;;4.83;1.10;;;26.80;1.00;;;;;;5060883;28;20414;-74
2022/08/20 12:44:37;;;;;;;4.57;1.60;;;26.10;1.00;;;;;;5093058;28;20483;-76
2022/08/20 12:47:14;;;;;;;2.20;1.23;;;25.40;1.00;;;;;;5071336;28;20419;-71
2022/08/20 12:49:44;;;;;;;3.67;1.17;;;25.10;1.00;;;;;;5076826;28;20436;-71
2022/08/20 12:52:11;;;;;;;2.63;1.10;;;25.20;1.00;;;;;;5082112;28;20417;-71
2022/08/20 12:54:37;;;;;;;6.40;1.50;;;25.20;1.00;;;;;;5096558;28;20410;-75
2022/08/20 12:57:03;;;;;;;3.50;1.53;;;25.10;1.00;;;;;;5091144;28;20412;-74
2022/08/20 12:59:30;;;;;;;1.90;0.83;;;25.00;1.00;;;;;;5077176;28;20971;-74
2022/08/20 13:01:56;;;;;;;3.43;1.30;;;25.00;1.00;;;;;;5078869;28;20543;-77
2022/08/20 13:04:23;;;;;;;3.30;1.03;;;25.00;1.00;;;;;;5096557;28;20403;-75
2022/08/20 13:06:48;;;;;;;5.20;1.23;;;25.00;1.00;;;;;;5075934;28;20415;-71
2022/08/20 13:09:16;;;;;;;2.67;1.20;;;25.00;1.00;;;;;;5057960;28;20436;-73
2022/08/20 13:11:42;;;;;;;2.50;1.23;;;25.00;1.00;;;;;;5075870;28;20503;-74
2022/08/20 13:14:07;;;;;;;3.07;1.63;;;24.90;1.00;;;;;;5076005;28;20436;-75
2022/08/20 13:16:33;;;;;;;2.83;1.87;;;25.00;1.00;;;;;;5077373;28;20980;-76
2022/08/20 13:18:59;;;;;;;1.07;0.90;;;25.00;1.00;;;;;;5076444;28;20596;-72
2022/08/20 13:21:25;;;;;;;2.70;1.37;;;24.70;1.00;;;;;;5075582;28;20163;-73
2022/08/20 13:23:51;;;;;;;3.13;1.07;;;24.80;1.00;;;;;;5073843;28;20165;-76
2022/08/20 13:26:16;;;;;;;2.80;1.40;;;24.90;1.00;;;;;;5091445;28;20186;-72
2022/08/20 13:28:42;;;;;;;2.03;1.27;;;24.90;1.00;;;;;;5074444;28;20190;-72
2022/08/20 13:31:08;;;;;;;4.10;1.37;;;25.10;1.00;;;;;;5058174;28;20224;-74
2022/08/20 13:33:33;;;;;;;3.33;1.40;;;25.30;1.00;;;;;;5077814;28;20204;-75
2022/08/20 13:35:59;;;;;;;1.63;1.17;;;25.50;1.00;;;;;;5077053;28;20169;-75
2022/08/20 13:38:25;;;;;;;1.53;1.17;;;25.40;1.00;;;;;;5075111;28;20707;-72
2022/08/20 13:40:51;;;;;;;3.07;1.40;;;25.60;1.00;;;;;;5076484;28;20616;-72
2022/08/20 13:43:16;;;;;;;3.67;1.50;;;25.80;1.00;;;;;;5095172;28;20201;-77
2022/08/20 13:45:42;;;;;;;6.43;1.50;;;25.60;1.00;;;;;;5077453;28;20172;-77
2022/08/20 13:48:08;;;;;;;5.07;1.80;;;25.50;1.00;;;;;;5063243;28;20277;-76
2022/08/20 13:50:34;;;;;;;1.80;1.23;;;25.20;1.00;;;;;;5077578;28;20170;-76
2022/08/20 13:53:00;;;;;;;2.43;1.60;;;25.10;1.00;;;;;;5077208;28;20542;-74
2022/08/20 13:55:27;;;;;;;6.73;1.60;;;25.30;1.00;;;;;;5076337;28;20416;-72
2022/08/20 13:57:54;;;;;;;3.87;1.80;;;25.40;1.00;;;;;;5074776;28;20193;-75
2022/08/20 14:00:29;;;;;;;3.73;1.73;;;25.50;1.00;;;;;;5079674;28;20426;-71
2022/08/20 14:02:55;;;;;;;2.37;1.50;;;25.30;1.00;;;;;;5057076;28;20428;-69
2022/08/20 14:05:21;;;;;;;5.63;3.07;;;25.20;1.00;;;;;;5056751;28;20757;-73
2022/08/20 14:07:48;;;;;;;3.20;1.20;;;25.30;1.00;;;;;;5074629;28;20191;-74
2022/08/20 14:10:22;;;;;;;3.27;1.57;;;25.50;1.00;;;;;;5056816;28;20499;-71
2022/08/20 14:12:49;;;;;;;5.73;1.43;;;25.60;1.00;;;;;;5075930;28;20419;-71
2022/08/20 14:15:15;;;;;;;5.50;1.43;;;25.80;1.00;;;;;;5062945;28;21023;-71
2022/08/20 14:17:48;;;;;;;4.83;1.63;;;26.00;1.00;;;;;;5073827;28;20897;-70
2022/08/20 14:20:18;;;;;;;3.13;1.30;;;26.00;1.00;;;;;;5073142;28;20430;-70
2022/08/20 14:22:45;;;;;;;4.67;1.80;;;25.80;1.00;;;;;;5057028;28;20440;-75
2022/08/20 14:25:13;;;;;;;2.50;1.50;;;25.30;1.00;;;;;;5068415;28;20416;-70
2022/08/20 14:27:40;;;;;;;4.63;1.40;;;25.20;1.00;;;;;;5075583;28;20263;-70
2022/08/20 14:30:09;;;;;;;2.17;1.10;;;25.40;1.00;;;;;;5083644;28;20432;-74
2022/08/20 14:32:35;;;;;;;4.10;1.20;;;25.50;1.00;;;;;;5056483;28;20841;-70
2022/08/20 14:35:01;;;;;;;2.67;1.20;;;25.50;1.00;;;;;;5068857;28;20454;-75
2022/08/20 14:37:36;;;;;;;3.83;1.70;;;25.60;1.00;;;;;;5090519;28;20169;-69
2022/08/20 14:40:06;;;;;;;3.53;1.17;;;25.50;1.00;;;;;;5074325;28;20993;-75